Time;durP1;ratioP1;P1;durP2;ratioP2;P2;SDS_P1;SDS_P2;PMS_P1;PMS_P2;Temp;Humidity;BMP_temperature;BMP_pressure;BME280_temperature;BME280_humidity;BME280_pressure;Samples;Min_cycle;Max_cycle;Signal;HPM_P1;HPM_P2
2023/10/25 00:04:46;;;;;;;;;;;;;;;17.45;91.41;100001.63;10335224;28;97155;-80
2023/10/25 00:09:50;;;;;;;9.18;1.63;;;;;;;17.39;92.02;100013.53;10334504;28;96767;-80
2023/10/25 00:14:55;;;;;;;10.18;2.03;;;;;;;17.43;91.90;100028.31;10333949;28;96909;-80
2023/10/25 00:19:58;;;;;;;6.45;1.73;;;;;;;17.45;92.13;100021.06;10334160;28;96573;-80
2023/10/25 00:25:01;;;;;;;10.18;1.70;;;;;;;17.50;91.20;99979.06;10334278;28;96774;-80
2023/10/25 00:30:09;;;;;;;9.77;2.15;;;;;;;17.51;91.54;99980.78;10327053;28;96831;-80
2023/10/25 00:35:12;;;;;;;3.42;1.27;;;;;;;17.56;90.91;99978.63;10292372;28;96755;-80
2023/10/25 00:40:16;;;;;;;11.10;1.60;;;;;;;17.58;90.58;99989.16;10324703;28;97210;-80
2023/10/25 00:45:21;;;;;;;9.30;1.80;;;;;;;17.56;90.30;100007.03;10332784;28;99551;-80
2023/10/25 00:50:24;;;;;;;8.23;1.80;;;;;;;17.51;90.99;100001.19;10332992;28;98049;-81
2023/10/25 00:55:28;;;;;;;8.00;1.85;;;;;;;17.50;91.01;100005.66;10333173;28;96638;-80
2023/10/25 01:00:33;;;;;;;8.75;1.92;;;;;;;17.49;91.40;100003.97;10332562;28;96957;-80
2023/10/25 01:05:37;;;;;;;11.52;2.00;;;;;;;17.46;91.33;99996.22;10332537;28;97107;-80
2023/10/25 01:10:40;;;;;;;11.97;2.27;;;;;;;17.48;90.98;99996.97;10333443;28;97135;-80
2023/10/25 01:15:45;;;;;;;7.30;1.92;;;;;;;17.49;90.75;99998.66;10332392;28;96872;-80
2023/10/25 01:20:49;;;;;;;10.30;1.70;;;;;;;17.53;90.90;100007.25;10331396;28;96833;-80
2023/10/25 01:25:54;;;;;;;7.22;1.80;;;;;;;17.54;90.48;100020.44;10331503;28;96774;-80
2023/10/25 01:30:57;;;;;;;6.35;1.70;;;;;;;17.55;90.31;100031.94;10331241;28;97140;-80
2023/10/25 01:36:01;;;;;;;6.45;2.28;;;;;;;17.54;90.31;100043.53;10331640;28;97009;-80
2023/10/25 01:41:05;;;;;;;9.38;2.25;;;;;;;17.53;90.40;100061.34;10331239;28;96829;-80
2023/10/25 01:46:09;;;;;;;7.80;1.83;;;;;;;17.57;89.91;100088.56;10331068;28;96646;-79
2023/10/25 01:51:12;;;;;;;10.75;1.95;;;;;;;17.61;89.36;100082.06;10330773;28;96688;-79
2023/10/25 01:56:17;;;;;;;8.40;1.70;;;;;;;17.66;89.05;100075.44;10330805;28;97166;-80
2023/10/25 02:01:20;;;;;;;7.65;1.85;;;;;;;17.63;89.66;100057.06;10330954;28;97006;-80
2023/10/25 02:06:24;;;;;;;12.93;1.77;;;;;;;17.56;90.13;100045.16;10331081;28;96690;-80
2023/10/25 02:11:29;;;;;;;10.50;2.08;;;;;;;17.59;89.51;100031.59;10329566;28;96599;-80
2023/10/25 02:16:33;;;;;;;8.25;1.45;;;;;;;17.66;89.43;100014.25;10330295;28;97131;-80
2023/10/25 02:21:36;;;;;;;8.85;1.92;;;;;;;17.68;89.19;99999.03;10329546;28;97236;-79
2023/10/25 02:26:41;;;;;;;8.13;1.65;;;;;;;17.62;88.82;99980.81;10330211;28;97483;-79
2023/10/25 02:31:45;;;;;;;3.75;1.30;;;;;;;17.56;89.40;99970.63;10329465;28;97373;-80
2023/10/25 02:36:49;;;;;;;10.70;2.60;;;;;;;17.57;89.40;99982.16;10315033;28;96982;-80
2023/10/25 02:41:53;;;;;;;10.38;1.83;;;;;;;17.60;87.91;99995.22;10370794;28;96823;-79
2023/10/25 02:46:57;;;;;;;;;;;;;;;17.70;86.26;100014.88;10370334;28;97615;-79
2023/10/25 02:52:00;;;;;;;8.80;2.30;;;;;;;17.71;87.24;100006.78;10344647;28;97025;-79
2023/10/25 02:57:05;;;;;;;10.70;2.13;;;;;;;17.72;87.03;100011.16;10331144;28;97545;-79
2023/10/25 03:02:08;;;;;;;6.47;1.38;;;;;;;17.71;86.10;100028.06;10328756;28;96950;-79
2023/10/25 03:07:12;;;;;;;7.28;2.05;;;;;;;17.71;86.63;100017.41;10328601;28;97432;-79
2023/10/25 03:12:16;;;;;;;9.75;2.00;;;;;;;17.75;86.18;100010.94;10328079;28;97203;-81
2023/10/25 03:17:20;;;;;;;;;;;;;;;17.67;86.80;100005.31;10328905;28;97363;-81
2023/10/25 03:22:23;;;;;;;10.43;2.17;;;;;;;17.63;87.35;100001.16;10330540;28;96887;-80
2023/10/25 03:27:28;;;;;;;6.72;1.73;;;;;;;17.59;87.80;100005.00;10336121;28;96635;-80
2023/10/25 03:32:31;;;;;;;;;;;;;;;17.54;88.02;100009.81;10331906;28;97298;-80
2023/10/25 03:37:35;;;;;;;6.43;1.48;;;;;;;17.57;87.66;100016.72;10335306;28;97486;-80
2023/10/25 03:42:40;;;;;;;7.07;1.70;;;;;;;17.58;87.67;100023.75;10335503;28;97517;-80
2023/10/25 03:47:43;;;;;;;;;;;;;;;17.60;87.82;100035.13;10372774;28;96969;-80
2023/10/25 03:52:47;;;;;;;9.40;2.15;;;;;;;17.57;88.05;100036.19;10343583;28;96697;-80
2023/10/25 03:57:52;;;;;;;7.50;2.00;;;;;;;17.58;88.08;100053.00;10333891;28;96916;-80
2023/10/25 04:02:55;;;;;;;10.18;1.92;;;;;;;17.57;88.48;100036.19;10333181;28;96721;-80
2023/10/25 04:07:58;;;;;;;9.10;1.73;;;;;;;17.58;88.54;100051.22;10334009;28;96687;-80
2023/10/25 04:13:03;;;;;;;8.38;1.90;;;;;;;17.62;88.30;100050.00;10333877;28;97496;-80
2023/10/25 04:18:09;;;;;;;;;;;;;;;17.63;88.97;100062.38;10334413;28;96774;-80
2023/10/25 04:23:12;;;;;;;6.50;2.30;;;;;;;17.61;88.96;100056.31;10333585;28;98354;-80
2023/10/25 04:28:18;;;;;;;9.30;2.13;;;;;;;17.62;88.80;100050.00;10333206;28;96769;-80
2023/10/25 04:33:21;;;;;;;7.25;2.08;;;;;;;17.60;89.20;100049.28;10332671;28;97083;-80
2023/10/25 04:38:25;;;;;;;10.50;2.10;;;;;;;17.58;89.63;100067.19;10368488;28;96746;-80
2023/10/25 04:43:30;;;;;;;12.35;2.45;;;;;;;17.60;90.25;100070.59;10374325;28;96769;-80
2023/10/25 04:48:34;;;;;;;12.93;2.63;;;;;;;17.64;89.33;100076.53;10373925;28;96800;-80
2023/10/25 04:53:37;;;;;;;10.95;2.40;;;;;;;17.62;89.62;100071.28;10353136;28;97521;-81
2023/10/25 04:58:42;;;;;;;13.30;2.35;;;;;;;17.59;90.41;100079.50;10373678;28;97335;-80
2023/10/25 05:03:45;;;;;;;9.35;1.92;;;;;;;17.62;89.79;100081.13;10373354;28;97166;-80
2023/10/25 05:08:49;;;;;;;10.50;2.58;;;;;;;17.59;90.19;100079.50;10372386;28;96640;-80
2023/10/25 05:13:55;;;;;;;9.23;1.73;;;;;;;17.57;90.01;100094.72;10373715;28;97093;-80
2023/10/25 05:18:58;;;;;;;6.65;1.77;;;;;;;17.59;89.89;100084.00;10333980;28;97015;-81
2023/10/25 05:24:04;;;;;;;14.35;1.95;;;;;;;17.61;89.64;100082.91;10331745;28;97432;-80
2023/10/25 05:29:10;;;;;;;8.25;1.98;;;;;;;17.67;89.23;100066.53;10363955;28;98161;-80
2023/10/25 05:34:13;;;;;;;13.40;2.03;;;;;;;17.69;89.00;100071.75;10333131;28;96742;-80
2023/10/25 05:39:17;;;;;;;10.67;2.23;;;;;;;17.58;89.39;100068.97;10330954;28;96686;-80
2023/10/25 05:44:23;;;;;;;10.05;2.10;;;;;;;17.44;90.84;100072.59;10346911;28;97251;-80
2023/10/25 05:49:27;;;;;;;5.55;1.95;;;;;;;17.43;91.28;100083.34;10366124;28;97413;-80
2023/10/25 05:54:30;;;;;;;6.50;2.23;;;;;;;17.43;90.42;100076.19;10330379;28;96598;-80
2023/10/25 05:59:36;;;;;;;8.02;1.45;;;;;;;17.42;90.16;100069.19;10331186;28;96653;-79
2023/10/25 06:04:41;;;;;;;4.07;1.15;;;;;;;17.42;90.36;100061.19;10330389;28;97444;-80
2023/10/25 06:09:46;;;;;;;5.60;1.38;;;;;;;17.47;90.86;100085.69;10330331;28;97360;-80
2023/10/25 06:14:50;;;;;;;9.80;2.20;;;;;;;17.45;91.53;100076.94;10329875;28;96808;-80
2023/10/25 06:19:53;;;;;;;;;;;;;;;17.52;91.08;100088.06;10331833;28;97112;-80
2023/10/25 06:24:57;;;;;;;8.00;1.73;;;;;;;17.51;90.68;100095.19;10329811;28;96638;-80
2023/10/25 06:30:01;;;;;;;6.43;1.33;;;;;;;17.51;90.03;100110.28;10329464;28;96548;-80
2023/10/25 06:35:06;;;;;;;5.70;1.30;;;;;;;17.48;90.54;100118.47;10342235;28;97291;-80
2023/10/25 06:40:10;;;;;;;4.10;1.30;;;;;;;17.44;90.76;100124.94;10370801;28;96676;-80
2023/10/25 06:45:15;;;;;;;;;;;;;;;17.45;90.54;100129.31;10370275;28;96715;-80
2023/10/25 06:50:20;;;;;;;6.05;1.10;;;;;;;17.42;90.67;100127.69;10359075;28;97146;-80
2023/10/25 06:55:24;;;;;;;10.65;2.05;;;;;;;17.36;91.07;100130.81;10328829;28;97218;-80
2023/10/25 07:00:30;;;;;;;6.75;1.60;;;;;;;17.35;92.01;100126.44;10335016;28;96679;-80
2023/10/25 07:05:34;;;;;;;9.70;1.58;;;;;;;17.38;91.81;100130.69;10336091;28;96951;-80
2023/10/25 07:10:38;;;;;;;4.43;1.35;;;;;;;17.41;91.72;100139.31;10337180;28;97791;-80
2023/10/25 07:15:43;;;;;;;8.33;2.10;;;;;;;17.42;91.06;100140.16;10335515;28;97053;-80
2023/10/25 07:20:46;;;;;;;5.13;1.50;;;;;;;17.37;91.01;100145.78;10335637;28;97448;-80
2023/10/25 07:25:50;;;;;;;5.53;1.85;;;;;;;17.36;92.02;100154.75;10334953;28;96842;-80
2023/10/25 07:30:55;;;;;;;11.32;1.88;;;;;;;17.40;92.00;100166.84;10335232;28;96903;-80
2023/10/25 07:35:58;;;;;;;;;;;;;;;17.49;92.47;100152.09;10335672;28;96809;-80
2023/10/25 07:41:01;;;;;;;6.85;1.60;;;;;;;17.47;91.66;100162.84;10335204;28;97137;-80
2023/10/25 07:46:06;;;;;;;7.57;1.65;;;;;;;17.58;91.63;100164.78;10334863;28;96806;-80
2023/10/25 07:51:09;;;;;;;13.18;2.38;;;;;;;17.57;91.77;100163.06;10334516;28;96787;-80
2023/10/25 07:56:13;;;;;;;8.30;1.88;;;;;;;17.50;91.51;100172.44;10334928;28;96975;-80
2023/10/25 08:01:20;;;;;;;5.25;1.52;;;;;;;17.59;91.82;100185.13;10331651;28;97050;-80
2023/10/25 08:06:24;;;;;;;9.80;2.03;;;;;;;17.71;91.81;100202.91;10334353;28;96989;-79
2023/10/25 08:11:28;;;;;;;10.02;2.20;;;;;;;17.81;91.37;100223.41;10332789;28;97222;-80
2023/10/25 08:16:38;;;;;;;5.03;1.70;;;;;;;17.94;90.21;100226.94;10333332;28;97519;-80
2023/10/25 08:21:42;;;;;;;20.92;3.55;;;;;;;18.05;89.61;100235.03;10333625;28;97136;-80
2023/10/25 08:26:45;;;;;;;15.15;2.70;;;;;;;18.23;88.69;100237.34;10333312;28;97100;-80
2023/10/25 08:31:50;;;;;;;10.07;2.13;;;;;;;18.39;88.41;100228.13;10334089;28;97519;-79
2023/10/25 08:36:54;;;;;;;;;;;;;;;18.39;86.28;100219.28;10372392;28;97094;-80
2023/10/25 08:41:58;;;;;;;6.40;1.60;;;;;;;18.44;87.36;100212.66;10374586;28;96752;-80
2023/10/25 08:47:03;;;;;;;13.43;2.40;;;;;;;18.48;88.11;100198.19;10373696;28;97009;-80
2023/10/25 08:52:07;;;;;;;8.85;1.90;;;;;;;18.71;87.37;100208.03;10371526;28;97208;-79
2023/10/25 08:57:11;;;;;;;10.18;2.00;;;;;;;18.72;86.55;100200.88;10374016;28;96769;-79
2023/10/25 09:02:16;;;;;;;6.97;2.42;;;;;;;18.82;85.28;100205.41;10373660;28;96701;-79
2023/10/25 09:07:28;;;;;;;8.82;1.80;;;;;;;18.89;85.58;100213.81;10371700;28;96781;-79
2023/10/25 09:12:32;;;;;;;8.80;2.00;;;;;;;19.05;84.87;100223.22;10373527;28;96645;-79
2023/10/25 09:17:37;;;;;;;9.60;2.47;;;;;;;19.22;83.13;100214.81;10366276;28;96777;-79
2023/10/25 09:22:40;;;;;;;10.07;2.40;;;;;;;19.27;83.04;100227.78;10331393;28;96647;-79
2023/10/25 09:27:43;;;;;;;10.50;2.10;;;;;;;19.18;81.82;100249.84;10369091;28;97198;-79
2023/10/25 09:32:48;;;;;;;11.15;2.40;;;;;;;19.27;82.04;100262.47;10342465;28;97507;-79
2023/10/25 09:37:53;;;;;;;7.63;2.00;;;;;;;19.37;80.69;100249.31;10290373;28;97075;-79
2023/10/25 09:43:00;;;;;;;8.95;2.70;;;;;;;19.29;79.36;100263.22;10336790;28;96652;-79
2023/10/25 09:48:08;;;;;;;9.25;1.98;;;;;;;19.34;79.18;100254.88;10372176;28;97413;-79
2023/10/25 09:53:18;;;;;;;11.55;2.28;;;;;;;19.51;78.57;100249.97;10335896;28;97153;-79
2023/10/25 09:58:23;;;;;;;6.72;2.85;;;;;;;19.82;76.48;100245.81;10330445;28;97515;-79
2023/10/25 10:03:35;;;;;;;9.13;2.78;;;;;;;20.04;75.99;100254.72;10330357;28;97247;-79
2023/10/25 10:08:45;;;;;;;8.68;2.58;;;;;;;20.20;76.99;100255.19;10330414;28;96998;-79
2023/10/25 10:14:27;;;;;;;10.73;2.70;;;;;;;20.04;75.87;100264.53;10329652;28;97354;-79
2023/10/25 10:19:33;;;;;;;11.25;3.08;;;;;;;20.02;75.99;100272.69;10296109;28;96885;-79
2023/10/25 10:24:47;;;;;;;7.80;2.35;;;;;;;19.93;76.87;100273.38;10329691;28;96722;-79
2023/10/25 10:29:51;;;;;;;7.30;2.23;;;;;;;19.88;77.31;100269.38;10329319;28;97292;-79
2023/10/25 10:34:56;;;;;;;10.85;2.28;;;;;;;19.75;76.36;100276.63;10330122;28;96576;-79
2023/10/25 10:40:13;;;;;;;9.00;2.55;;;;;;;19.65;76.30;100247.09;10329470;28;96697;-79
2023/10/25 10:45:19;;;;;;;10.57;2.72;;;;;;;19.70;76.32;100247.59;10329257;28;97029;-79
2023/10/25 10:50:25;;;;;;;8.05;2.20;;;;;;;19.64;76.95;100245.41;10328316;28;97473;-79
2023/10/25 10:55:29;;;;;;;10.95;2.25;;;;;;;19.70;77.17;100244.09;10328994;28;96837;-79
2023/10/25 11:00:32;;;;;;;14.32;2.78;;;;;;;19.86;76.43;100236.56;10329269;28;97012;-79
2023/10/25 11:05:38;;;;;;;14.03;3.07;;;;;;;19.98;76.14;100236.47;10329630;28;96971;-79
2023/10/25 11:10:42;;;;;;;7.50;1.73;;;;;;;19.93;76.10;100233.31;10328885;28;97563;-79
2023/10/25 11:15:45;;;;;;;10.80;2.53;;;;;;;19.71;76.93;100219.09;10348057;22;97685;-79
2023/10/25 11:20:50;;;;;;;7.85;2.20;;;;;;;19.57;77.76;100201.47;10369897;28;97148;-79
2023/10/25 11:25:54;;;;;;;7.93;2.28;;;;;;;19.79;77.42;100193.47;10339528;28;97586;-79
2023/10/25 11:31:02;;;;;;;10.03;2.97;;;;;;;20.52;75.51;100171.59;10326228;28;96933;-79
2023/10/25 11:36:07;;;;;;;9.38;2.33;;;;;;;20.64;75.42;100163.44;10326764;28;96897;-80
2023/10/25 11:41:11;;;;;;;4.47;2.00;;;;;;;20.62;75.33;100172.56;10327821;28;97109;-79
2023/10/25 11:46:15;;;;;;;5.83;1.63;;;;;;;20.32;75.67;100152.69;10332598;28;97432;-80
2023/10/25 11:51:20;;;;;;;9.48;1.88;;;;;;;20.51;75.16;100159.22;10333184;28;97600;-80
2023/10/25 11:56:24;;;;;;;7.75;1.58;;;;;;;20.24;75.68;100152.44;10324316;28;97306;-80
2023/10/25 12:01:27;;;;;;;8.98;2.08;;;;;;;20.28;76.22;100164.59;10334389;28;97218;-80
2023/10/25 12:06:34;;;;;;;4.63;1.40;;;;;;;21.03;72.41;100143.22;10332357;28;96721;-80
2023/10/25 12:11:38;;;;;;;9.30;1.80;;;;;;;21.03;72.99;100154.78;10333864;28;96757;-81
2023/10/25 12:16:42;;;;;;;5.22;1.45;;;;;;;21.14;72.70;100154.69;10332556;28;97200;-81
2023/10/25 12:21:53;;;;;;;9.05;1.65;;;;;;;20.71;75.06;100153.06;10329212;28;98641;-81
2023/10/25 12:26:57;;;;;;;3.88;0.98;;;;;;;20.63;75.62;100153.72;10329494;28;96994;-81
2023/10/25 12:32:02;;;;;;;4.20;1.13;;;;;;;21.24;74.72;100141.44;10331558;28;96983;-81
2023/10/25 12:37:08;;;;;;;4.45;1.30;;;;;;;21.81;72.36;100135.56;10333305;28;97247;-81
2023/10/25 12:42:12;;;;;;;4.68;0.80;;;;;;;21.52;72.18;100133.56;10333331;28;96690;-81
2023/10/25 12:47:15;;;;;;;3.00;0.93;;;;;;;21.15;73.45;100115.41;10333188;28;97074;-81
2023/10/25 12:52:20;;;;;;;3.03;0.80;;;;;;;21.05;74.82;100107.31;10373833;28;96896;-82
2023/10/25 12:57:24;;;;;;;2.05;0.70;;;;;;;20.89;74.96;100103.41;10373585;28;96770;-81
2023/10/25 13:02:27;;;;;;;1.73;0.45;;;;;;;20.69;76.79;100105.06;10374220;28;97456;-81
2023/10/25 13:07:32;;;;;;;1.83;0.85;;;;;;;20.80;76.76;100102.34;10373733;28;96614;-81
2023/10/25 13:12:36;;;;;;;1.95;0.70;;;;;;;20.43;78.77;100092.19;10373768;28;97039;-81
2023/10/25 13:17:39;;;;;;;;;;;;;;;20.23;80.26;100107.13;10373603;28;97192;-81
2023/10/25 13:22:45;;;;;;;1.15;0.55;;;;;;;20.23;80.54;100093.78;10357170;28;96958;-81
2023/10/25 13:27:48;;;;;;;1.42;0.38;;;;;;;20.01;81.52;100089.31;10332035;28;97339;-81
2023/10/25 13:32:52;;;;;;;1.73;0.50;;;;;;;20.00;81.46;100087.63;10331231;28;96750;-81
2023/10/25 13:37:57;;;;;;;1.13;0.70;;;;;;;20.02;80.82;100084.81;10331401;28;96999;-81
2023/10/25 13:43:01;;;;;;;1.08;0.38;;;;;;;20.02;80.91;100071.47;10332004;28;97622;-81
2023/10/25 13:48:04;;;;;;;1.38;0.32;;;;;;;19.95;81.97;100076.47;10331612;28;97323;-81
2023/10/25 13:53:09;;;;;;;1.57;0.50;;;;;;;19.94;82.76;100069.41;10331287;28;97142;-81
2023/10/25 13:58:13;;;;;;;0.43;0.30;;;;;;;19.91;82.71;100063.50;10331854;28;96805;-81
2023/10/25 14:03:23;;;;;;;1.10;0.40;;;;;;;19.89;82.54;100052.09;10330868;28;96611;-81
2023/10/25 14:08:28;;;;;;;2.53;1.33;;;;;;;19.86;82.59;100071.84;10329291;28;96873;-81
2023/10/25 14:13:32;;;;;;;1.95;0.60;;;;;;;19.84;82.58;100068.47;10329868;28;96914;-81
2023/10/25 14:18:39;;;;;;;0.80;0.43;;;;;;;19.75;83.50;100066.50;10329548;28;97826;-82
2023/10/25 14:23:44;;;;;;;0.52;0.25;;;;;;;19.61;84.82;100065.94;10329912;28;96763;-83
2023/10/25 14:28:48;;;;;;;0.40;0.40;;;;;;;19.69;85.05;100063.50;10329954;28;96781;-81
2023/10/25 14:33:51;;;;;;;1.98;0.70;;;;;;;19.87;84.85;100070.03;10367611;28;96908;-81
2023/10/25 14:38:56;;;;;;;0.93;0.55;;;;;;;19.82;84.89;100067.72;10370686;28;96753;-81
2023/10/25 14:43:59;;;;;;;0.60;0.32;;;;;;;19.76;85.64;100070.03;10370089;28;96967;-81
2023/10/25 14:49:05;;;;;;;0.40;0.30;;;;;;;19.79;86.13;100059.09;10370681;28;96751;-81
2023/10/25 14:54:14;;;;;;;0.80;0.50;;;;;;;19.89;85.41;100055.56;10369977;28;96801;-81
2023/10/25 14:59:18;;;;;;;0.47;0.35;;;;;;;19.98;84.93;100059.31;10370559;28;96648;-81
2023/10/25 15:04:21;;;;;;;1.08;0.30;;;;;;;20.03;84.84;100041.13;10368499;28;96737;-80
2023/10/25 15:09:26;;;;;;;0.88;0.20;;;;;;;20.10;85.04;100051.16;10370079;28;98007;-80
2023/10/25 15:14:30;;;;;;;0.45;0.30;;;;;;;20.00;85.56;100046.69;10369608;28;97318;-80
2023/10/25 15:19:41;;;;;;;0.75;0.40;;;;;;;20.01;86.12;100043.91;10347781;28;96691;-80
2023/10/25 15:24:47;;;;;;;2.37;0.60;;;;;;;19.95;86.10;100044.41;10336121;28;96966;-80
2023/10/25 15:29:51;;;;;;;0.43;0.40;;;;;;;19.84;87.77;100044.41;10335492;28;97267;-81
2023/10/25 15:34:54;;;;;;;1.35;0.90;;;;;;;19.77;89.20;100055.75;10309117;28;96867;-82
2023/10/25 15:40:00;;;;;;;1.13;0.50;;;;;;;19.74;89.65;100056.81;10341669;28;97069;-81
2023/10/25 15:45:12;;;;;;;2.05;0.90;;;;;;;19.76;89.71;100052.22;10372385;28;96945;-81
2023/10/25 15:50:16;;;;;;;2.15;0.95;;;;;;;19.74;89.83;100054.16;10376501;28;96985;-82
2023/10/25 15:55:21;;;;;;;2.55;0.82;;;;;;;19.71;90.78;100043.72;10374300;28;96649;-81
2023/10/25 16:00:25;;;;;;;2.15;0.85;;;;;;;19.77;90.61;100051.22;10376336;28;97425;-81
2023/10/25 16:05:29;;;;;;;3.55;0.70;;;;;;;19.80;90.49;100052.81;10376184;28;96905;-82
2023/10/25 16:10:34;;;;;;;1.40;0.82;;;;;;;19.79;90.79;100049.28;10375215;28;96888;-81
2023/10/25 16:15:38;;;;;;;1.15;0.77;;;;;;;19.80;91.01;100052.81;10364958;28;96721;-81
2023/10/25 16:20:42;;;;;;;2.05;0.75;;;;;;;19.76;91.44;100049.53;10334077;28;96575;-82
2023/10/25 16:25:47;;;;;;;0.60;0.60;;;;;;;19.72;92.50;100044.59;10333860;28;96838;-82
2023/10/25 16:30:50;;;;;;;2.17;0.80;;;;;;;19.67;93.62;100055.63;10333793;28;97079;-83
2023/10/25 16:35:53;;;;;;;0.98;0.60;;;;;;;19.67;93.98;100060.94;10333642;28;96858;-82
2023/10/25 16:41:02;;;;;;;0.68;0.60;;;;;;;19.70;93.87;100065.22;10333334;28;96819;-82
2023/10/25 16:46:07;;;;;;;1.55;0.77;;;;;;;19.68;94.48;100045.78;10332653;28;97682;-81
2023/10/25 16:51:12;;;;;;;2.80;0.70;;;;;;;19.72;94.28;100047.25;10332811;28;97059;-81
2023/10/25 16:56:20;;;;;;;1.38;0.45;;;;;;;19.73;94.15;100041.78;10333016;28;96673;-83
2023/10/25 17:01:23;;;;;;;0.38;0.22;;;;;;;19.78;94.01;100046.75;10332663;28;97638;-82
2023/10/25 17:06:27;;;;;;;1.42;0.50;;;;;;;19.77;93.87;100045.88;10333130;28;96873;-81
2023/10/25 17:11:31;;;;;;;1.02;0.70;;;;;;;19.77;94.14;100042.38;10332368;28;96621;-81
2023/10/25 17:16:35;;;;;;;1.77;0.90;;;;;;;19.79;94.64;100037.75;10331778;28;96753;-82
2023/10/25 17:21:40;;;;;;;2.47;0.97;;;;;;;19.80;95.31;100034.13;10333733;28;97006;-82
2023/10/25 17:26:46;;;;;;;1.20;0.55;;;;;;;19.80;95.95;100034.97;10331910;28;97080;-82
2023/10/25 17:31:50;;;;;;;1.17;0.70;;;;;;;19.79;95.86;100049.28;10331857;28;97225;-83
2023/10/25 17:36:53;;;;;;;2.55;0.68;;;;;;;19.74;96.53;100038.13;10331038;28;96677;-82
2023/10/25 17:41:58;;;;;;;1.02;0.68;;;;;;;19.78;96.57;100041.41;10331163;28;96775;-81
2023/10/25 17:47:01;;;;;;;1.45;0.80;;;;;;;19.77;96.88;100040.53;10330900;28;96851;-81
2023/10/25 17:52:05;;;;;;;2.15;1.00;;;;;;;19.83;96.26;100048.06;10330984;28;97395;-81
2023/10/25 17:57:10;;;;;;;2.10;1.10;;;;;;;19.87;95.91;100054.03;10331695;28;97539;-81
2023/10/25 18:02:14;;;;;;;3.35;1.08;;;;;;;19.86;96.74;100055.84;10330858;28;96895;-81
2023/10/25 18:07:17;;;;;;;4.88;2.15;;;;;;;19.86;97.20;100054.97;10330608;28;96776;-82
2023/10/25 18:12:22;;;;;;;4.70;1.35;;;;;;;19.88;96.85;100063.72;10348601;28;96668;-83
2023/10/25 18:17:26;;;;;;;3.10;1.17;;;;;;;19.86;97.28;100061.19;10352216;28;97361;-82
2023/10/25 18:22:29;;;;;;;2.37;1.20;;;;;;;19.86;97.51;100054.97;10330223;28;97257;-82
2023/10/25 18:27:33;;;;;;;4.03;1.63;;;;;;;19.89;97.21;100055.56;10329409;28;96700;-81
2023/10/25 18:32:37;;;;;;;3.67;1.40;;;;;;;19.87;97.38;100065.56;10328147;28;97838;-82
2023/10/25 18:37:41;;;;;;;4.47;1.73;;;;;;;19.91;97.49;100061.66;10329578;28;96992;-83
2023/10/25 18:42:46;;;;;;;2.43;1.20;;;;;;;19.91;97.74;100075.00;10329925;28;97253;-83
2023/10/25 18:47:50;;;;;;;4.18;1.10;;;;;;;19.89;98.02;100076.94;10329617;28;97371;-81
2023/10/25 18:52:53;;;;;;;0.88;0.52;;;;;;;19.88;98.83;100091.28;10330119;28;96647;-80
2023/10/25 18:57:58;;;;;;;2.03;0.82;;;;;;;19.85;98.77;100090.69;10336608;28;97290;-80
2023/10/25 19:03:02;;;;;;;0.80;0.63;;;;;;;19.82;99.13;100097.09;10337768;28;96721;-80
2023/10/25 19:08:05;;;;;;;1.10;0.80;;;;;;;19.84;99.47;100087.16;10336247;28;97286;-81
2023/10/25 19:13:30;;;;;;;1.55;1.13;;;;;;;19.86;98.50;100079.00;10335894;28;98453;-82
2023/10/25 19:18:34;;;;;;;4.20;1.70;;;;;;;19.86;98.25;100068.34;10335232;28;96797;-80
2023/10/25 19:23:39;;;;;;;3.93;1.50;;;;;;;19.82;98.61;100059.72;10335662;28;96707;-80
2023/10/25 19:28:45;;;;;;;4.32;1.30;;;;;;;19.83;98.63;100068.59;10335743;28;96742;-82
2023/10/25 19:33:48;;;;;;;2.92;1.10;;;;;;;19.86;97.99;100071.84;10335408;28;97140;-81
2023/10/25 19:38:52;;;;;;;5.63;1.58;;;;;;;19.88;97.98;100075.25;10336224;28;96742;-80
2023/10/25 19:43:57;;;;;;;4.57;1.40;;;;;;;19.91;97.69;100060.81;10335352;28;96861;-81
2023/10/25 19:49:04;;;;;;;2.85;1.20;;;;;;;19.98;97.04;100062.00;10335241;28;96824;-81
2023/10/25 19:54:07;;;;;;;4.22;1.17;;;;;;;19.96;96.96;100046.09;10336027;28;96729;-81
2023/10/25 19:59:12;;;;;;;5.63;1.38;;;;;;;19.97;96.77;100045.13;10334891;28;97021;-81
2023/10/25 20:04:16;;;;;;;5.07;1.40;;;;;;;20.05;96.06;100041.81;10333377;28;96826;-81
2023/10/25 20:09:20;;;;;;;5.20;1.93;;;;;;;20.02;96.08;100036.75;10333329;28;97027;-81
2023/10/25 20:14:25;;;;;;;3.20;1.17;;;;;;;19.96;96.52;100021.22;10333718;28;97048;-82
2023/10/25 20:19:28;;;;;;;3.28;1.60;;;;;;;19.97;96.53;100018.44;10333914;28;96853;-81
2023/10/25 20:24:33;;;;;;;2.53;1.00;;;;;;;20.01;96.29;100009.16;10333803;28;96682;-81
2023/10/25 20:29:40;;;;;;;2.45;1.35;;;;;;;20.08;95.80;100020.22;10334169;28;96884;-81
2023/10/25 20:34:44;;;;;;;4.32;1.27;;;;;;;20.04;96.06;100016.09;10333547;28;97500;-81
2023/10/25 20:39:47;;;;;;;3.77;1.47;;;;;;;20.05;95.97;100020.44;10333285;28;97121;-81
2023/10/25 20:44:52;;;;;;;4.28;1.40;;;;;;;20.09;95.44;100038.78;10333931;28;96883;-80
2023/10/25 20:49:56;;;;;;;5.55;1.48;;;;;;;20.13;95.51;100037.56;10333348;28;97434;-81
2023/10/25 20:54:59;;;;;;;3.87;1.27;;;;;;;20.13;95.28;100042.06;10332565;28;96772;-81
2023/10/25 21:00:05;;;;;;;7.18;1.65;;;;;;;20.07;95.30;100024.72;10332128;28;96981;-83
2023/10/25 21:05:09;;;;;;;4.50;1.83;;;;;;;20.03;96.32;100014.41;10332658;28;97294;-82
2023/10/25 21:10:13;;;;;;;2.53;1.30;;;;;;;19.98;96.77;100009.44;10332730;28;97032;-81
2023/10/25 21:15:19;;;;;;;3.78;1.20;;;;;;;20.02;96.86;100002.00;10331430;28;97071;-81
2023/10/25 21:20:22;;;;;;;5.20;1.20;;;;;;;20.00;96.57;100006.63;10332636;28;96760;-82
2023/10/25 21:25:26;;;;;;;3.63;1.43;;;;;;;20.04;97.05;100005.41;10331897;28;97002;-82
2023/10/25 21:30:31;;;;;;;3.83;1.00;;;;;;;20.09;96.32;100004.06;10331789;28;97528;-81
2023/10/25 21:35:34;;;;;;;4.28;1.08;;;;;;;20.08;96.27;100007.69;10335022;28;96660;-82
2023/10/25 21:40:40;;;;;;;2.00;1.10;;;;;;;20.07;96.34;99991.78;10372583;28;97258;-81
2023/10/25 21:45:52;;;;;;;4.38;1.23;;;;;;;20.05;96.76;99999.09;10372683;28;96912;-81
2023/10/25 21:50:59;;;;;;;3.67;1.23;;;;;;;20.06;96.56;99976.75;10371189;28;96636;-82
2023/10/25 21:56:04;;;;;;;7.55;1.77;;;;;;;20.08;96.81;99969.47;10371585;28;97131;-82
2023/10/25 22:01:28;;;;;;;8.37;1.40;;;;;;;20.05;96.87;99962.53;10371503;28;97363;-82
2023/10/25 22:06:31;;;;;;;3.65;1.17;;;;;;;20.09;96.73;99964.00;10330770;28;97420;-81
2023/10/25 22:11:35;;;;;;;2.03;1.13;;;;;;;20.05;97.41;99961.69;10357979;28;96586;-81
2023/10/25 22:16:41;;;;;;;3.90;1.17;;;;;;;20.01;97.79;99947.72;10371416;28;97249;-80
2023/10/25 22:21:44;;;;;;;2.42;1.20;;;;;;;20.02;97.63;99936.09;10363793;28;97089;-81
2023/10/25 22:26:48;;;;;;;3.40;1.20;;;;;;;20.04;97.11;99928.81;10331055;28;97281;-81
2023/10/25 22:31:52;;;;;;;2.80;1.00;;;;;;;20.07;96.99;99927.69;10329757;28;96951;-82
2023/10/25 22:36:56;;;;;;;4.55;1.13;;;;;;;20.08;96.03;99921.38;10329634;28;96691;-81
2023/10/25 22:41:59;;;;;;;4.43;1.20;;;;;;;20.14;95.67;99916.38;10328998;28;96736;-81
2023/10/25 22:47:05;;;;;;;4.97;1.17;;;;;;;20.14;95.11;99907.50;10329663;28;98207;-82
2023/10/25 22:52:08;;;;;;;5.85;1.42;;;;;;;20.11;95.20;99897.94;10329074;28;96790;-82
2023/10/25 22:57:12;;;;;;;3.73;1.13;;;;;;;20.15;94.46;99903.88;10329324;28;97280;-82
2023/10/25 23:02:17;;;;;;;4.63;1.37;;;;;;;20.17;94.59;99893.88;10329258;28;96834;-82
2023/10/25 23:07:21;;;;;;;4.75;1.55;;;;;;;20.16;94.35;99889.50;10329383;28;97239;-81
2023/10/25 23:12:25;;;;;;;6.65;1.55;;;;;;;20.16;94.34;99886.84;10328503;28;97239;-81
2023/10/25 23:17:31;;;;;;;5.47;1.20;;;;;;;20.18;94.38;99863.53;10339673;28;98544;-82
2023/10/25 23:22:34;;;;;;;2.80;0.80;;;;;;;20.12;94.59;99854.19;10355235;28;96878;-81
2023/10/25 23:27:37;;;;;;;2.60;0.98;;;;;;;20.12;95.01;99859.53;10328610;28;96577;-83